createdAt,value
2022-08-02T00:00:00.647Z,3.65
2022-08-02T00:02:30.046Z,5.50
2022-08-02T00:04:59.361Z,2.70
2022-08-02T00:07:30.745Z,2.88
2022-08-02T00:10:00.381Z,2.17
2022-08-02T00:12:29.887Z,2.78
2022-08-02T00:14:59.553Z,2.47
2022-08-02T00:17:29.068Z,3.85
2022-08-02T00:19:58.396Z,3.63
2022-08-02T00:22:27.754Z,4.22
2022-08-02T00:24:58.029Z,5.05
2022-08-02T00:27:27.517Z,2.75
2022-08-02T00:29:59.920Z,3.03
2022-08-02T00:32:29.332Z,4.18
2022-08-02T00:34:58.723Z,3.88
2022-08-02T00:37:28.082Z,3.90
2022-08-02T00:39:58.558Z,3.17
2022-08-02T00:42:27.910Z,3.25
2022-08-02T00:44:57.144Z,4.00
2022-08-02T00:47:26.536Z,3.60
2022-08-02T00:49:55.878Z,5.45
2022-08-02T00:52:26.569Z,4.53
2022-08-02T00:54:55.934Z,2.60
2022-08-02T00:57:25.169Z,2.95
2022-08-02T00:59:54.831Z,3.40
2022-08-02T01:02:24.166Z,3.97
2022-08-02T01:04:53.575Z,2.38
2022-08-02T01:07:26.192Z,2.33
2022-08-02T01:09:55.737Z,2.53
2022-08-02T01:12:25.053Z,2.15
2022-08-02T01:14:57.190Z,2.47
2022-08-02T01:18:04.123Z,1.90
2022-08-02T01:21:16.287Z,2.88
2022-08-02T01:24:37.475Z,2.67
2022-08-02T01:27:44.692Z,4.43
2022-08-02T01:30:15.734Z,3.37
2022-08-02T01:32:53.886Z,3.30
2022-08-02T01:35:50.680Z,2.03
2022-08-02T01:38:36.889Z,3.97
2022-08-02T01:41:09.027Z,1.52
2022-08-02T01:43:41.819Z,2.05
2022-08-02T01:46:15.485Z,2.00
2022-08-02T01:48:49.094Z,1.75
2022-08-02T01:51:41.969Z,1.88
2022-08-02T01:54:21.394Z,1.48
2022-08-02T01:56:53.275Z,1.73
2022-08-02T01:59:25.354Z,0.88
2022-08-02T02:01:59.291Z,2.58
2022-08-02T02:04:39.586Z,1.80
2022-08-02T02:07:13.367Z,0.90
2022-08-02T02:09:50.217Z,1.27
2022-08-02T02:12:28.386Z,1.43
2022-08-02T02:15:00.532Z,0.73
2022-08-02T02:17:52.876Z,0.82
2022-08-02T02:20:23.974Z,1.15
2022-08-02T02:22:57.262Z,0.98
2022-08-02T02:25:35.585Z,0.80
2022-08-02T02:28:18.501Z,1.00
2022-08-02T02:30:54.524Z,1.45
2022-08-02T02:33:29.583Z,0.98
2022-08-02T02:36:01.989Z,1.20
2022-08-02T02:38:37.311Z,1.23
2022-08-02T02:41:08.569Z,2.47
2022-08-02T02:43:41.101Z,2.20
2022-08-02T02:46:12.241Z,1.42
2022-08-02T02:48:43.211Z,1.55
2022-08-02T02:51:14.638Z,2.38
2022-08-02T02:54:30.874Z,1.02
2022-08-02T02:56:36.473Z,1.60
2022-08-02T02:59:09.101Z,1.52
2022-08-02T03:01:56.605Z,1.00
2022-08-02T03:04:55.261Z,1.45
2022-08-02T03:07:20.267Z,1.10
2022-08-02T03:09:53.839Z,1.27
2022-08-02T03:12:31.475Z,1.05
2022-08-02T03:15:08.236Z,1.33
2022-08-02T03:17:46.817Z,0.75
2022-08-02T03:20:21.998Z,0.93
2022-08-02T03:22:51.973Z,1.27
2022-08-02T03:25:22.082Z,1.05
2022-08-02T03:27:51.333Z,1.20
2022-08-02T03:30:20.783Z,1.13
2022-08-02T03:32:51.269Z,0.73
2022-08-02T03:35:24.508Z,1.60
2022-08-02T03:37:59.040Z,0.95
2022-08-02T03:40:30.135Z,1.17
2022-08-02T03:43:00.697Z,1.38
2022-08-02T03:45:31.161Z,1.60
2022-08-02T03:48:01.172Z,1.45
2022-08-02T03:50:31.413Z,0.68
2022-08-02T03:53:01.733Z,1.15
2022-08-02T03:55:31.384Z,1.25
2022-08-02T03:58:04.573Z,1.38
2022-08-02T04:00:34.172Z,0.68
2022-08-02T04:03:03.563Z,2.10
2022-08-02T04:05:32.998Z,1.55
2022-08-02T04:08:33.920Z,1.00
2022-08-02T04:11:03.890Z,1.00
2022-08-02T04:13:37.692Z,2.47
2022-08-02T04:16:24.387Z,2.13
2022-08-02T04:19:07.125Z,1.60
2022-08-02T04:21:51.154Z,1.90
2022-08-02T04:24:29.639Z,1.98
2022-08-02T04:27:06.655Z,0.93
2022-08-02T04:29:50.308Z,2.58
2022-08-02T04:32:20.606Z,1.90
2022-08-02T04:35:17.817Z,1.25
2022-08-02T04:38:08.906Z,0.88
2022-08-02T04:40:30.769Z,2.30
2022-08-02T04:43:00.184Z,0.90
2022-08-02T04:45:31.842Z,0.63
2022-08-02T04:48:05.349Z,0.68
2022-08-02T04:50:36.369Z,0.85
2022-08-02T04:53:06.022Z,1.73
2022-08-02T04:55:35.422Z,1.73
2022-08-02T04:58:23.868Z,1.23
2022-08-02T05:00:55.282Z,1.05
2022-08-02T05:03:24.739Z,1.73
2022-08-02T05:05:53.928Z,1.45
2022-08-02T05:08:23.274Z,1.40
2022-08-02T05:10:52.656Z,1.77
2022-08-02T05:13:22.042Z,2.10
2022-08-02T05:15:52.936Z,0.98
2022-08-02T05:18:22.263Z,2.17
2022-08-02T05:20:55.205Z,2.13
2022-08-02T05:23:27.589Z,1.58
2022-08-02T05:25:57.608Z,1.30
2022-08-02T05:28:26.939Z,1.60
2022-08-02T05:30:56.402Z,1.25
2022-08-02T05:33:25.679Z,1.02
2022-08-02T05:35:56.333Z,0.80
2022-08-02T05:38:26.302Z,2.10
2022-08-02T05:40:55.829Z,2.30
2022-08-02T05:43:25.124Z,1.13
2022-08-02T05:45:54.613Z,2.25
2022-08-02T05:48:27.824Z,1.92
2022-08-02T05:51:11.245Z,2.08
2022-08-02T05:53:59.220Z,1.10
2022-08-02T06:00:12.356Z,1.58
2022-08-02T06:03:17.722Z,1.17
2022-08-02T06:06:06.516Z,1.40
2022-08-02T06:08:50.650Z,0.70
2022-08-02T06:11:25.494Z,0.50
2022-08-02T06:13:55.766Z,0.52
2022-08-02T06:16:31.911Z,1.58
2022-08-02T06:19:03.723Z,1.23
2022-08-02T06:22:32.484Z,1.10
2022-08-02T06:24:26.625Z,2.13
2022-08-02T06:26:58.460Z,1.23
2022-08-02T06:29:28.846Z,1.10
2022-08-02T06:31:59.831Z,1.67
2022-08-02T06:34:29.168Z,1.15
2022-08-02T06:37:30.298Z,0.80
2022-08-02T06:40:31.010Z,2.40
2022-08-02T06:43:42.791Z,1.38
2022-08-02T06:46:38.044Z,0.90
2022-08-02T06:49:04.015Z,1.30
2022-08-02T06:51:34.433Z,0.93
2022-08-02T06:54:03.845Z,1.40
2022-08-02T06:56:33.181Z,2.00
2022-08-02T06:59:05.906Z,1.98
2022-08-02T07:01:38.823Z,2.85
2022-08-02T07:04:08.809Z,2.00
2022-08-02T07:06:38.430Z,1.83
2022-08-02T07:09:23.278Z,1.83
2022-08-02T07:11:52.758Z,2.03
2022-08-02T07:14:22.025Z,1.48
2022-08-02T07:16:51.311Z,1.45
2022-08-02T07:19:20.712Z,1.10
2022-08-02T07:21:57.570Z,1.38
2022-08-02T07:24:30.234Z,0.93
2022-08-02T07:27:15.421Z,1.75
2022-08-02T07:29:47.068Z,0.82
2022-08-02T07:32:26.762Z,0.60
2022-08-02T07:34:57.571Z,0.52
2022-08-02T07:37:53.388Z,0.43
2022-08-02T07:40:23.711Z,0.65
2022-08-02T07:43:02.456Z,0.65
2022-08-02T07:45:36.027Z,0.30
2022-08-02T07:48:14.821Z,0.40
2022-08-02T07:50:44.166Z,0.60
2022-08-02T07:53:13.565Z,0.50
2022-08-02T07:55:43.093Z,0.40
2022-08-02T07:58:13.940Z,0.40
2022-08-02T08:00:47.334Z,0.95
2022-08-02T08:03:16.740Z,0.68
2022-08-02T08:05:46.153Z,0.40
2022-08-02T08:08:17.731Z,0.43
2022-08-02T08:10:48.423Z,0.30
2022-08-02T08:13:18.572Z,0.93
2022-08-02T08:15:51.949Z,1.02
2022-08-02T08:18:23.515Z,0.35
2022-08-02T08:20:53.427Z,0.85
2022-08-02T08:23:23.932Z,1.27
2022-08-02T08:25:53.406Z,0.38
2022-08-02T08:28:23.028Z,0.52
2022-08-02T08:30:52.416Z,0.85
2022-08-02T08:33:21.933Z,0.60
2022-08-02T08:35:51.301Z,0.70
2022-08-02T08:38:22.125Z,0.70
2022-08-02T08:40:53.430Z,0.60
2022-08-02T08:43:22.829Z,0.93
2022-08-02T08:45:55.849Z,0.55
2022-08-02T08:48:31.340Z,0.50
2022-08-02T08:51:12.922Z,0.47
2022-08-02T08:53:45.638Z,0.52
2022-08-02T08:56:16.925Z,1.35
2022-08-02T08:58:51.239Z,1.08
2022-08-02T09:01:21.008Z,0.60
2022-08-02T09:03:50.407Z,1.75
2022-08-02T09:06:20.172Z,0.85
2022-08-02T09:08:50.010Z,0.70
2022-08-02T09:11:24.687Z,1.45
2022-08-02T09:13:59.943Z,1.45
2022-08-02T09:16:47.672Z,2.17
2022-08-02T09:19:28.520Z,2.70
2022-08-02T09:22:12.112Z,3.00
2022-08-02T09:24:49.974Z,1.20
2022-08-02T09:27:23.398Z,1.70
2022-08-02T09:30:13.682Z,1.20
2022-08-02T09:32:49.353Z,2.55
2022-08-02T09:36:05.838Z,2.53
2022-08-02T09:38:26.010Z,3.13
2022-08-02T09:40:56.088Z,3.22
2022-08-02T09:43:57.969Z,2.65
2022-08-02T09:46:38.729Z,1.80
2022-08-02T09:49:13.850Z,1.40
2022-08-02T09:51:53.238Z,2.42
2022-08-02T09:54:29.824Z,2.33
2022-08-02T09:57:03.050Z,1.77
2022-08-02T09:59:33.763Z,2.22
2022-08-02T10:02:17.130Z,2.60
2022-08-02T10:04:52.033Z,2.53
2022-08-02T10:07:23.379Z,4.13
2022-08-02T10:09:54.038Z,2.00
2022-08-02T10:12:24.605Z,1.27
2022-08-02T10:14:54.349Z,2.15
2022-08-02T10:17:24.472Z,1.33
2022-08-02T10:20:03.475Z,1.88
2022-08-02T10:22:36.762Z,2.03
2022-08-02T10:25:08.132Z,0.82
2022-08-02T10:28:03.630Z,1.17
2022-08-02T10:30:31.654Z,10.40
2022-08-02T10:33:03.985Z,15.90
2022-08-02T10:35:42.107Z,29.38
2022-08-02T10:38:14.256Z,24.08
2022-08-02T10:40:53.513Z,7.85
2022-08-02T10:43:45.042Z,4.72
2022-08-02T10:46:42.473Z,4.30
2022-08-02T10:49:40.025Z,2.58
2022-08-02T10:52:11.377Z,3.25
2022-08-02T10:55:01.581Z,2.80
2022-08-02T10:57:37.555Z,2.30
2022-08-02T11:00:29.329Z,2.17
2022-08-02T11:02:58.745Z,2.80
2022-08-02T11:05:43.195Z,2.17
2022-08-02T11:08:24.249Z,2.63
2022-08-02T11:10:59.182Z,2.40
2022-08-02T11:13:29.705Z,2.17
2022-08-02T11:16:11.265Z,2.60
2022-08-02T11:19:09.146Z,1.75
2022-08-02T11:21:38.629Z,2.08
2022-08-02T11:24:40.580Z,1.38
2022-08-02T11:27:21.978Z,3.03
2022-08-02T11:29:51.785Z,3.42
2022-08-02T11:32:30.566Z,2.25
2022-08-02T11:35:04.416Z,1.98
2022-08-02T11:37:45.307Z,1.30
2022-08-02T11:40:19.549Z,1.60
2022-08-02T11:42:51.685Z,2.22
2022-08-02T11:45:29.997Z,2.33
2022-08-02T11:47:59.479Z,3.33
2022-08-02T11:50:30.383Z,2.53
2022-08-02T11:52:59.889Z,1.83
2022-08-02T11:55:33.228Z,1.80
2022-08-02T11:58:06.487Z,1.88
2022-08-02T12:00:37.315Z,2.55
2022-08-02T12:03:08.090Z,2.95
2022-08-02T12:06:05.684Z,3.55
2022-08-02T12:08:28.442Z,3.58
2022-08-02T12:11:03.973Z,4.18
2022-08-02T12:13:56.861Z,3.97
2022-08-02T12:16:46.420Z,4.22
2022-08-02T12:19:20.171Z,4.20
2022-08-02T12:21:50.390Z,4.95
2022-08-02T12:24:31.893Z,5.22
2022-08-02T12:27:01.317Z,5.18
2022-08-02T12:29:55.982Z,4.85
2022-08-02T12:35:26.336Z,3.92
2022-08-02T12:37:57.446Z,4.32
2022-08-02T12:40:34.773Z,3.85
2022-08-02T12:43:08.689Z,6.45
2022-08-02T12:45:54.586Z,6.45
2022-08-02T12:48:56.607Z,5.57
2022-08-02T12:51:55.828Z,4.05
2022-08-02T12:54:39.853Z,2.17
2022-08-02T12:57:16.364Z,2.67
2022-08-02T12:59:53.397Z,2.42
2022-08-02T13:02:23.070Z,2.53
2022-08-02T13:04:52.521Z,2.50
2022-08-02T13:07:22.155Z,2.17
2022-08-02T13:09:51.467Z,2.58
2022-08-02T13:12:32.294Z,2.33
2022-08-02T13:15:01.608Z,2.42
2022-08-02T13:17:31.001Z,2.55
2022-08-02T13:20:00.791Z,2.10
2022-08-02T13:22:31.503Z,2.28
2022-08-02T13:25:02.489Z,3.17
2022-08-02T13:27:32.289Z,2.05
2022-08-02T13:30:03.576Z,2.70
2022-08-02T13:32:32.933Z,3.00
2022-08-02T13:35:02.315Z,3.58
2022-08-02T13:37:34.394Z,4.03
2022-08-02T13:40:21.796Z,3.55
2022-08-02T13:42:52.061Z,3.80
2022-08-02T13:45:21.321Z,4.68
2022-08-02T13:47:57.505Z,4.38
2022-08-02T13:50:34.691Z,3.55
2022-08-02T13:53:04.065Z,4.40
2022-08-02T13:55:33.648Z,3.85
2022-08-02T13:58:03.163Z,3.60
2022-08-02T14:00:35.367Z,3.17
2022-08-02T14:03:11.972Z,3.25
2022-08-02T14:05:47.554Z,4.47
2022-08-02T14:08:21.219Z,4.13
2022-08-02T14:10:52.237Z,4.38
2022-08-02T14:13:21.986Z,4.43
2022-08-02T14:15:51.778Z,4.95
2022-08-02T14:18:21.460Z,4.25
2022-08-02T14:20:50.772Z,3.30
2022-08-02T14:23:50.322Z,4.32
2022-08-02T14:26:15.680Z,3.33
2022-08-02T14:28:57.620Z,3.17
2022-08-02T14:31:26.881Z,3.15
2022-08-02T14:33:56.168Z,3.38
2022-08-02T14:36:27.673Z,4.30
2022-08-02T14:38:58.273Z,2.72
2022-08-02T14:41:27.716Z,3.08
2022-08-02T14:44:06.655Z,3.35
2022-08-02T14:46:41.454Z,3.47
2022-08-02T14:49:24.261Z,2.40
2022-08-02T14:51:56.726Z,2.20
2022-08-02T14:54:32.570Z,2.95
2022-08-02T14:57:04.218Z,2.80
2022-08-02T14:59:34.037Z,2.13
2022-08-02T15:02:03.457Z,2.25
2022-08-02T15:04:42.712Z,2.22
2022-08-02T15:07:14.089Z,2.10
2022-08-02T15:09:43.574Z,1.67
2022-08-02T15:12:14.419Z,2.65
2022-08-02T15:14:44.514Z,2.40
2022-08-02T15:17:13.930Z,3.40
2022-08-02T15:19:57.845Z,3.88
2022-08-02T15:22:31.065Z,2.88
2022-08-02T15:25:01.902Z,3.55
2022-08-02T15:27:31.184Z,2.67
2022-08-02T15:30:03.690Z,2.47
2022-08-02T15:32:33.043Z,2.08
2022-08-02T15:35:02.773Z,2.28
2022-08-02T15:37:34.768Z,3.72
2022-08-02T15:40:11.732Z,2.70
2022-08-02T15:42:41.039Z,2.00
2022-08-02T15:45:14.756Z,3.03
2022-08-02T15:47:48.249Z,2.95
2022-08-02T15:50:20.531Z,3.05
2022-08-02T15:52:49.909Z,1.73
2022-08-02T15:55:19.268Z,2.30
2022-08-02T15:57:48.790Z,2.03
2022-08-02T16:00:19.147Z,2.47
2022-08-02T16:02:48.990Z,2.97
2022-08-02T16:05:19.529Z,2.08
2022-08-02T16:07:49.335Z,2.08
2022-08-02T16:10:19.196Z,2.35
2022-08-02T16:12:48.415Z,2.35
2022-08-02T16:15:17.762Z,1.90
2022-08-02T16:17:51.478Z,2.45
2022-08-02T16:20:24.468Z,3.30
2022-08-02T16:22:53.761Z,1.98
2022-08-02T16:25:23.085Z,2.58
2022-08-02T16:28:06.027Z,2.22
2022-08-02T16:30:38.026Z,2.88
2022-08-02T16:33:07.271Z,2.28
2022-08-02T16:35:36.639Z,2.53
2022-08-02T16:38:06.188Z,3.50
2022-08-02T16:40:35.616Z,2.40
2022-08-02T16:43:09.148Z,2.45
2022-08-02T16:45:38.964Z,2.17
2022-08-02T16:48:09.061Z,2.53
2022-08-02T16:50:39.349Z,2.25
2022-08-02T16:53:09.447Z,2.13
2022-08-02T16:55:40.600Z,2.67
2022-08-02T16:58:21.832Z,2.40
2022-08-02T17:00:51.659Z,2.65
2022-08-02T17:03:21.084Z,1.92
2022-08-02T17:05:56.009Z,2.28
2022-08-02T17:08:31.639Z,2.42
2022-08-02T17:11:17.497Z,2.72
2022-08-02T17:13:46.941Z,2.95
2022-08-02T17:19:05.811Z,2.45
2022-08-02T17:21:36.582Z,1.95
2022-08-02T17:24:08.673Z,2.17
2022-08-02T17:26:39.485Z,2.03
2022-08-02T17:29:14.636Z,1.60
2022-08-02T17:32:02.550Z,1.85
2022-08-02T17:34:37.297Z,2.17
2022-08-02T17:37:08.555Z,2.10
2022-08-02T17:39:44.504Z,2.33
2022-08-02T17:42:23.914Z,3.85
2022-08-02T17:45:01.129Z,3.85
2022-08-02T17:47:42.352Z,4.95
2022-08-02T17:50:12.757Z,4.22
2022-08-02T17:55:31.940Z,5.28
2022-08-02T17:58:01.457Z,5.00
2022-08-02T18:00:37.773Z,4.70
2022-08-02T18:03:10.119Z,6.10
2022-08-02T18:05:53.306Z,6.25
2022-08-02T18:08:25.118Z,5.50
2022-08-02T18:10:56.722Z,5.70
2022-08-02T18:13:26.172Z,4.40
2022-08-02T18:16:03.330Z,2.85
2022-08-02T18:18:33.296Z,2.25
2022-08-02T18:21:15.411Z,2.13
2022-08-02T18:23:49.451Z,2.50
2022-08-02T18:26:23.185Z,1.90
2022-08-02T18:28:52.612Z,1.88
2022-08-02T18:31:22.956Z,1.85
2022-08-02T18:34:00.311Z,1.80
2022-08-02T18:36:32.732Z,2.20
2022-08-02T18:39:08.143Z,1.73
2022-08-02T18:41:38.259Z,1.65
2022-08-02T18:44:07.927Z,1.27
2022-08-02T18:46:40.922Z,1.30
2022-08-02T18:49:14.793Z,1.23
2022-08-02T18:51:45.795Z,1.58
2022-08-02T18:54:15.808Z,0.70
2022-08-02T18:56:47.350Z,1.23
2022-08-02T18:59:17.825Z,0.85
2022-08-02T19:01:51.170Z,1.17
2022-08-02T19:04:27.506Z,0.98
2022-08-02T19:07:05.430Z,1.10
2022-08-02T19:09:40.058Z,0.77
2022-08-02T19:12:13.014Z,1.33
2022-08-02T19:14:43.193Z,1.10
2022-08-02T19:17:54.104Z,0.88
2022-08-02T19:20:02.398Z,1.05
2022-08-02T19:22:32.023Z,1.08
2022-08-02T19:25:01.994Z,0.90
2022-08-02T19:27:33.210Z,1.50
2022-08-02T19:30:07.378Z,1.15
2022-08-02T19:32:40.531Z,1.30
2022-08-02T19:35:30.542Z,1.60
2022-08-02T19:38:12.606Z,0.95
2022-08-02T19:40:45.578Z,1.08
2022-08-02T19:44:26.681Z,0.93
2022-08-02T19:46:04.515Z,1.60
2022-08-02T19:48:34.285Z,1.02
2022-08-02T19:51:07.841Z,1.13
2022-08-02T19:53:47.703Z,0.82
2022-08-02T19:56:22.081Z,1.10
2022-08-02T19:58:58.782Z,1.13
2022-08-02T20:01:38.718Z,1.10
2022-08-02T20:04:13.504Z,1.15
2022-08-02T20:06:47.571Z,1.35
2022-08-02T20:09:22.253Z,1.20
2022-08-02T20:11:54.810Z,1.65
2022-08-02T20:14:27.685Z,1.05
2022-08-02T20:16:58.428Z,1.13
2022-08-02T20:19:29.699Z,0.90
2022-08-02T20:22:00.651Z,1.30
2022-08-02T20:24:31.120Z,1.42
2022-08-02T20:27:01.417Z,1.73
2022-08-02T20:29:44.011Z,1.67
2022-08-02T20:32:23.469Z,6.03
2022-08-02T20:34:53.505Z,1.58
2022-08-02T20:37:59.539Z,1.50
2022-08-02T20:40:16.803Z,1.40
2022-08-02T20:42:48.803Z,1.60
2022-08-02T20:45:19.466Z,1.60
2022-08-02T20:47:52.521Z,1.55
2022-08-02T20:50:35.856Z,1.17
2022-08-02T20:53:30.255Z,1.02
2022-08-02T21:00:06.498Z,1.35
2022-08-02T21:02:35.955Z,1.08
2022-08-02T21:05:07.709Z,1.05
2022-08-02T21:07:47.786Z,1.20
2022-08-02T21:10:26.289Z,1.38
2022-08-02T21:12:55.588Z,1.52
2022-08-02T21:15:25.833Z,1.73
2022-08-02T21:18:02.403Z,1.17
2022-08-02T21:20:33.943Z,1.52
2022-08-02T21:23:03.397Z,1.25
2022-08-02T21:25:50.793Z,1.17
2022-08-02T21:28:22.294Z,1.35
2022-08-02T21:30:52.494Z,1.08
2022-08-02T21:33:23.650Z,1.00
2022-08-02T21:35:53.627Z,1.17
2022-08-02T21:38:35.793Z,1.42
2022-08-02T21:41:13.421Z,2.03
2022-08-02T21:43:46.944Z,1.08
2022-08-02T21:46:18.257Z,1.35
2022-08-02T21:48:47.476Z,1.00
2022-08-02T21:51:19.387Z,1.27
2022-08-02T21:54:18.223Z,1.20
2022-08-02T21:56:44.383Z,1.35
2022-08-02T21:59:16.672Z,1.05
2022-08-02T22:01:52.649Z,0.93
2022-08-02T22:04:23.499Z,1.27
2022-08-02T22:06:56.011Z,0.70
2022-08-02T22:09:43.602Z,1.38
2022-08-02T22:12:19.370Z,1.25
2022-08-02T22:17:53.520Z,0.88
2022-08-02T22:20:32.080Z,2.42
2022-08-02T22:23:13.082Z,2.17
2022-08-02T22:25:55.394Z,1.70
2022-08-02T22:31:41.508Z,2.10
2022-08-02T22:34:36.690Z,2.40
2022-08-02T22:37:07.327Z,2.42
2022-08-02T22:40:08.596Z,2.28
2022-08-02T22:42:34.161Z,2.35
2022-08-02T22:45:03.483Z,2.70
2022-08-02T22:47:38.755Z,3.00
2022-08-02T22:50:23.061Z,1.87
2022-08-02T22:52:55.902Z,2.80
2022-08-02T22:55:32.270Z,2.35
2022-08-02T22:58:05.193Z,2.47
2022-08-02T22:58:38.005Z,2.35
2022-08-02T22:58:41.050Z,4.85
2022-08-02T22:59:04.976Z,2.72
2022-08-02T22:59:10.631Z,1.20
2022-08-02T23:00:37.082Z,2.28
2022-08-02T23:03:07.066Z,1.95
2022-08-02T23:05:36.982Z,1.98
2022-08-02T23:08:10.000Z,2.90
2022-08-02T23:10:39.394Z,3.90
2022-08-02T23:13:08.685Z,2.30
2022-08-02T23:15:54.194Z,2.75
2022-08-02T23:18:38.600Z,2.58
2022-08-02T23:21:08.520Z,4.05
2022-08-02T23:23:42.923Z,3.88
2022-08-02T23:26:12.354Z,3.55
2022-08-02T23:28:41.599Z,2.78
2022-08-02T23:31:43.886Z,3.45
2022-08-02T23:34:20.085Z,2.75
2022-08-02T23:36:49.413Z,2.95
2022-08-02T23:39:18.795Z,4.28
2022-08-02T23:41:49.289Z,3.58
2022-08-02T23:44:25.597Z,3.40
2022-08-02T23:46:58.423Z,5.25
2022-08-02T23:49:28.513Z,3.88
2022-08-02T23:52:01.897Z,3.70
2022-08-02T23:54:31.858Z,3.53
2022-08-02T23:57:20.042Z,4.43
2022-08-02T23:59:52.442Z,2.50
